Time;durP1;ratioP1;P1;durP2;ratioP2;P2;SDS_P1;SDS_P2;PMS_P1;PMS_P2;Temp;Humidity;BMP_temperature;BMP_pressure;BME280_temperature;BME280_humidity;BME280_pressure;Samples;Min_cycle;Max_cycle;Signal;HPM_P1;HPM_P2
2021/07/19 00:00:20;;;;;;;20.17;18.97;;;;;;;;;;5030818;28;20872;-65
2021/07/19 00:02:48;;;;;;;20.67;19.37;;;;;;;;;;5011855;28;20453;-65
2021/07/19 00:05:16;;;;;;;20.67;19.23;;;;;;;;;;5011597;28;20472;-65
2021/07/19 00:07:44;;;;;;;19.13;18.13;;;;;;;;;;5012318;28;20458;-65
2021/07/19 00:10:13;;;;;;;19.50;18.30;;;;;;;;;;5014729;28;21054;-65
2021/07/19 00:12:40;;;;;;;20.00;18.90;;;;;;;;;;5015553;28;20426;-65
2021/07/19 00:15:08;;;;;;;20.60;19.40;;;;;;;;;;5018363;28;20457;-65
2021/07/19 00:17:36;;;;;;;20.50;19.10;;;;;;;;;;5053425;28;20456;-64
2021/07/19 00:20:03;;;;;;;22.07;20.20;;;;;;;;;;5054934;28;20475;-64
2021/07/19 00:22:30;;;;;;;20.80;19.50;;;;;;;;;;5035445;28;20482;-65
2021/07/19 00:24:58;;;;;;;20.73;19.33;;;;;;;;;;5034597;28;21002;-65
2021/07/19 00:27:25;;;;;;;20.27;19.07;;;;;;;;;;5034616;28;20455;-64
2021/07/19 00:29:52;;;;;;;21.30;19.70;;;;;;;;;;5035217;28;20443;-65
2021/07/19 00:32:20;;;;;;;19.90;18.53;;;;;;;;;;5034441;28;20445;-65
2021/07/19 00:34:47;;;;;;;20.63;19.43;;;;;;;;;;5045475;28;20444;-65
2021/07/19 00:37:14;;;;;;;20.90;19.43;;;;;;;;;;5054659;28;20450;-65
2021/07/19 00:39:41;;;;;;;21.00;19.30;;;;;;;;;;5054885;28;20452;-65
2021/07/19 00:42:09;;;;;;;19.80;18.70;;;;;;;;;;5038486;28;20478;-65
2021/07/19 00:44:37;;;;;;;19.53;18.40;;;;;;;;;;5034748;28;20452;-66
2021/07/19 00:47:06;;;;;;;20.07;18.90;;;;;;;;;;5034630;28;20559;-72
2021/07/19 00:49:34;;;;;;;19.40;18.20;;;;;;;;;;5034851;28;20452;-66
2021/07/19 00:52:01;;;;;;;20.80;19.40;;;;;;;;;;5034198;28;20547;-65
2021/07/19 00:54:29;;;;;;;21.60;19.60;;;;;;;;;;5034576;28;20449;-65
2021/07/19 00:56:57;;;;;;;21.03;19.43;;;;;;;;;;5034350;28;20461;-65
2021/07/19 00:59:26;;;;;;;20.13;18.63;;;;;;;;;;5034256;28;20448;-66
2021/07/19 01:01:54;;;;;;;20.00;18.70;;;;;;;;;;5034209;28;20495;-65
2021/07/19 01:04:21;;;;;;;20.53;19.13;;;;;;;;;;5034561;28;20452;-65
2021/07/19 01:06:50;;;;;;;19.93;18.37;;;;;;;;;;5034136;28;20456;-65
2021/07/19 01:09:17;;;;;;;24.93;20.20;;;;;;;;;;5034028;28;20471;-66
2021/07/19 01:11:45;;;;;;;20.90;19.23;;;;;;;;;;5034666;28;20473;-66
2021/07/19 01:14:12;;;;;;;20.17;18.97;;;;;;;;;;5034228;28;20448;-66
2021/07/19 01:16:40;;;;;;;21.87;20.10;;;;;;;;;;5034065;28;20840;-65
2021/07/19 01:19:08;;;;;;;20.67;19.10;;;;;;;;;;5037805;28;20462;-65
2021/07/19 01:21:50;;;;;;;20.47;19.17;;;;;;;;;;5053534;28;20483;-66
2021/07/19 01:24:31;;;;;;;21.10;19.53;;;;;;;;;;5052258;28;20436;-66
2021/07/19 01:27:14;;;;;;;20.77;19.57;;;;;;;;;;5044232;28;20447;-66
2021/07/19 01:29:43;;;;;;;21.40;19.80;;;;;;;;;;5054507;28;20435;-66
2021/07/19 01:32:11;;;;;;;20.03;18.70;;;;;;;;;;5053690;28;20471;-65
2021/07/19 01:34:40;;;;;;;20.50;19.03;;;;;;;;;;5049683;28;20460;-64
2021/07/19 01:37:08;;;;;;;20.23;18.87;;;;;;;;;;5033597;28;20458;-64
2021/07/19 01:39:36;;;;;;;20.23;18.97;;;;;;;;;;5014044;28;20457;-65
2021/07/19 01:42:04;;;;;;;19.30;18.30;;;;;;;;;;5014476;28;20489;-65
2021/07/19 01:44:31;;;;;;;19.53;18.33;;;;;;;;;;5019010;28;20449;-66
2021/07/19 01:47:01;;;;;;;20.10;18.50;;;;;;;;;;5044851;28;20478;-66
2021/07/19 01:49:28;;;;;;;20.20;18.90;;;;;;;;;;5055962;28;20443;-66
2021/07/19 01:51:56;;;;;;;19.20;17.80;;;;;;;;;;5055759;28;20474;-66
2021/07/19 01:54:24;;;;;;;19.50;18.33;;;;;;;;;;5040253;28;21022;-69
2021/07/19 01:56:52;;;;;;;19.80;18.40;;;;;;;;;;5036495;28;20449;-66
2021/07/19 01:59:20;;;;;;;19.63;18.40;;;;;;;;;;5034046;28;20451;-65
2021/07/19 02:01:47;;;;;;;19.80;18.60;;;;;;;;;;5033152;28;20484;-68
2021/07/19 02:04:15;;;;;;;19.80;18.50;;;;;;;;;;5033757;28;20956;-66
2021/07/19 02:06:43;;;;;;;19.47;18.33;;;;;;;;;;5039142;28;20969;-65
2021/07/19 02:09:11;;;;;;;18.90;17.80;;;;;;;;;;5052608;28;20542;-66
2021/07/19 02:11:38;;;;;;;19.97;18.60;;;;;;;;;;5032866;28;20486;-65
2021/07/19 02:14:08;;;;;;;19.70;18.20;;;;;;;;;;5033553;28;20452;-65
2021/07/19 02:16:36;;;;;;;20.20;18.63;;;;;;;;;;5033215;28;20820;-65
2021/07/19 02:19:04;;;;;;;18.90;17.70;;;;;;;;;;5033388;28;20547;-65
2021/07/19 02:21:33;;;;;;;19.13;18.03;;;;;;;;;;5039470;28;21024;-64
2021/07/19 02:24:00;;;;;;;19.60;18.33;;;;;;;;;;5055658;28;20443;-65
2021/07/19 02:26:27;;;;;;;20.10;18.80;;;;;;;;;;5053637;28;20450;-66
2021/07/19 02:28:55;;;;;;;20.87;19.37;;;;;;;;;;5035168;28;20854;-65
2021/07/19 02:31:22;;;;;;;20.43;19.10;;;;;;;;;;5034081;28;21028;-64
2021/07/19 02:33:50;;;;;;;19.37;18.23;;;;;;;;;;5036483;28;20455;-66
2021/07/19 02:36:18;;;;;;;20.40;19.10;;;;;;;;;;5035849;28;20461;-65
2021/07/19 02:38:48;;;;;;;20.10;18.80;;;;;;;;;;5036088;28;20456;-65
2021/07/19 02:41:16;;;;;;;20.73;19.03;;;;;;;;;;5032560;28;20521;-67
2021/07/19 02:43:43;;;;;;;20.10;18.80;;;;;;;;;;5032854;28;20459;-64
2021/07/19 02:46:11;;;;;;;19.93;18.53;;;;;;;;;;5031941;28;20463;-64
2021/07/19 02:48:40;;;;;;;19.30;18.20;;;;;;;;;;5032195;28;20829;-65
2021/07/19 02:51:09;;;;;;;21.10;19.50;;;;;;;;;;5032439;28;20468;-64
2021/07/19 02:53:37;;;;;;;20.40;19.00;;;;;;;;;;5032505;28;20463;-65
2021/07/19 02:56:07;;;;;;;20.20;19.03;;;;;;;;;;5012543;28;20549;-65
2021/07/19 02:58:34;;;;;;;20.10;18.80;;;;;;;;;;5012829;28;20449;-64
2021/07/19 03:01:02;;;;;;;19.90;18.67;;;;;;;;;;5011961;28;20854;-64
2021/07/19 03:03:29;;;;;;;20.00;18.70;;;;;;;;;;5048417;28;20458;-64
2021/07/19 03:06:00;;;;;;;19.73;18.50;;;;;;;;;;5032344;28;20457;-64
2021/07/19 03:08:27;;;;;;;20.37;19.07;;;;;;;;;;5032011;28;20449;-64
2021/07/19 03:10:55;;;;;;;20.07;18.97;;;;;;;;;;5030606;28;21157;-64
2021/07/19 03:13:26;;;;;;;19.47;18.37;;;;;;;;;;5031094;28;20805;-65
2021/07/19 03:15:53;;;;;;;20.20;18.90;;;;;;;;;;5031636;28;20455;-65
2021/07/19 03:18:21;;;;;;;20.63;19.37;;;;;;;;;;5030462;28;20531;-65
2021/07/19 03:20:49;;;;;;;20.77;19.47;;;;;;;;;;5029960;28;20489;-65
2021/07/19 03:23:17;;;;;;;20.87;19.50;;;;;;;;;;5030735;28;20449;-66
2021/07/19 03:25:45;;;;;;;19.90;18.80;;;;;;;;;;5030418;28;20817;-65
2021/07/19 03:28:12;;;;;;;20.23;19.03;;;;;;;;;;5029321;28;20987;-65
2021/07/19 03:30:43;;;;;;;20.03;18.93;;;;;;;;;;5029856;28;20476;-65
2021/07/19 03:33:11;;;;;;;20.00;18.90;;;;;;;;;;5029552;28;20449;-66
2021/07/19 03:35:38;;;;;;;19.97;18.83;;;;;;;;;;5030613;28;20457;-65
2021/07/19 03:38:05;;;;;;;20.17;18.97;;;;;;;;;;5040978;28;20535;-65
2021/07/19 03:40:33;;;;;;;20.70;19.40;;;;;;;;;;5051173;28;20470;-66
2021/07/19 03:43:01;;;;;;;20.10;19.00;;;;;;;;;;5054452;28;20443;-64
2021/07/19 03:45:29;;;;;;;20.33;19.13;;;;;;;;;;5055279;28;20454;-65
2021/07/19 03:47:58;;;;;;;20.43;19.07;;;;;;;;;;5041988;28;20461;-66
2021/07/19 03:50:25;;;;;;;21.20;19.60;;;;;;;;;;5035325;28;20484;-65
2021/07/19 03:52:52;;;;;;;20.93;19.63;;;;;;;;;;5035475;28;20459;-65
2021/07/19 03:55:19;;;;;;;20.13;19.03;;;;;;;;;;5035599;28;20455;-66
2021/07/19 03:57:47;;;;;;;21.03;19.30;;;;;;;;;;5034953;28;20452;-66
2021/07/19 04:00:16;;;;;;;21.40;19.83;;;;;;;;;;5035062;28;20464;-66
2021/07/19 04:02:44;;;;;;;21.37;19.77;;;;;;;;;;5035152;28;20484;-66
2021/07/19 04:05:15;;;;;;;20.87;19.77;;;;;;;;;;5035653;28;20457;-66
2021/07/19 04:07:44;;;;;;;20.70;19.50;;;;;;;;;;5034391;28;20966;-65
2021/07/19 04:10:13;;;;;;;20.20;19.10;;;;;;;;;;5035031;28;20542;-66
2021/07/19 04:12:41;;;;;;;20.67;19.30;;;;;;;;;;5035178;28;20441;-66
2021/07/19 04:15:09;;;;;;;20.60;19.50;;;;;;;;;;5034763;28;20981;-66
2021/07/19 04:17:36;;;;;;;21.00;19.80;;;;;;;;;;5034933;28;20797;-65
2021/07/19 04:20:04;;;;;;;20.70;19.60;;;;;;;;;;5035188;28;20450;-66
2021/07/19 04:22:34;;;;;;;22.30;20.60;;;;;;;;;;5034671;28;20488;-65
2021/07/19 04:25:01;;;;;;;20.73;19.43;;;;;;;;;;5035119;28;20455;-65
2021/07/19 04:27:28;;;;;;;20.73;19.53;;;;;;;;;;5034648;28;21146;-65
2021/07/19 04:29:56;;;;;;;21.57;20.17;;;;;;;;;;5034497;28;20455;-65
2021/07/19 04:32:23;;;;;;;21.63;20.33;;;;;;;;;;5034451;28;20979;-64
2021/07/19 04:34:50;;;;;;;20.90;19.40;;;;;;;;;;5034582;28;20444;-65
2021/07/19 04:37:18;;;;;;;20.83;19.57;;;;;;;;;;5034311;28;20459;-64
2021/07/19 04:39:46;;;;;;;21.43;20.03;;;;;;;;;;5034531;28;20448;-66
2021/07/19 04:42:13;;;;;;;22.37;20.77;;;;;;;;;;5034387;28;20480;-65
2021/07/19 04:44:40;;;;;;;22.37;20.63;;;;;;;;;;5034594;28;20478;-65
2021/07/19 04:47:08;;;;;;;20.87;19.67;;;;;;;;;;5034134;28;20463;-65
2021/07/19 04:49:37;;;;;;;22.07;20.33;;;;;;;;;;5034418;28;20518;-65
2021/07/19 04:52:05;;;;;;;22.00;20.50;;;;;;;;;;5033993;28;20468;-65
2021/07/19 04:54:37;;;;;;;21.50;20.00;;;;;;;;;;5040024;28;20451;-65
2021/07/19 04:57:07;;;;;;;20.90;19.70;;;;;;;;;;5046074;28;20962;-65
2021/07/19 04:59:36;;;;;;;21.40;20.20;;;;;;;;;;5034513;28;20456;-65
2021/07/19 05:02:04;;;;;;;29.83;28.23;;;;;;;;;;5040602;28;20487;-66
2021/07/19 05:04:32;;;;;;;20.27;19.07;;;;;;;;;;5034541;28;20471;-66
2021/07/19 05:07:00;;;;;;;21.10;19.90;;;;;;;;;;5033945;28;20466;-66
2021/07/19 05:09:28;;;;;;;20.20;19.00;;;;;;;;;;5034379;28;20465;-66
2021/07/19 05:11:55;;;;;;;21.00;19.63;;;;;;;;;;5062836;22;20836;-68
2021/07/19 05:14:24;;;;;;;20.57;19.40;;;;;;;;;;5048101;28;20466;-68
2021/07/19 05:16:51;;;;;;;20.50;19.10;;;;;;;;;;5052891;28;20454;-65
2021/07/19 05:19:18;;;;;;;20.23;18.93;;;;;;;;;;5052771;28;20446;-67
2021/07/19 05:21:45;;;;;;;20.23;18.93;;;;;;;;;;5052785;28;20487;-65
2021/07/19 05:24:12;;;;;;;20.60;19.50;;;;;;;;;;5053727;28;20456;-68
2021/07/19 05:26:39;;;;;;;21.57;20.13;;;;;;;;;;5053079;28;20450;-65
2021/07/19 05:29:07;;;;;;;21.53;20.23;;;;;;;;;;5053203;28;20459;-66
2021/07/19 05:31:36;;;;;;;20.90;19.70;;;;;;;;;;5052809;28;20474;-66
2021/07/19 05:34:04;;;;;;;20.93;19.73;;;;;;;;;;5053082;28;20447;-69
2021/07/19 05:36:32;;;;;;;20.73;19.53;;;;;;;;;;5053109;28;20567;-65
2021/07/19 05:38:59;;;;;;;20.70;19.50;;;;;;;;;;5052940;28;20509;-66
2021/07/19 05:41:26;;;;;;;21.00;19.90;;;;;;;;;;5051233;28;20503;-69
2021/07/19 05:43:54;;;;;;;20.80;19.60;;;;;;;;;;5052794;28;20458;-66
2021/07/19 05:46:21;;;;;;;21.23;20.00;;;;;;;;;;5052944;28;20449;-66
2021/07/19 05:48:49;;;;;;;20.53;19.33;;;;;;;;;;5051010;28;20471;-66
2021/07/19 05:51:16;;;;;;;21.87;20.27;;;;;;;;;;5052514;28;20497;-65
2021/07/19 05:53:43;;;;;;;22.10;20.23;;;;;;;;;;5051882;28;20456;-66
2021/07/19 05:56:11;;;;;;;21.57;20.17;;;;;;;;;;5053179;28;20478;-68
2021/07/19 05:58:38;;;;;;;21.40;19.93;;;;;;;;;;5052507;28;20486;-67
2021/07/19 06:01:05;;;;;;;21.57;20.13;;;;;;;;;;5052038;28;20454;-68
2021/07/19 06:03:32;;;;;;;21.30;20.10;;;;;;;;;;5051561;28;20564;-68
2021/07/19 06:06:01;;;;;;;20.67;19.43;;;;;;;;;;5052192;28;20448;-68
2021/07/19 06:08:28;;;;;;;22.97;20.77;;;;;;;;;;5032746;28;20453;-68
2021/07/19 06:10:55;;;;;;;21.63;20.10;;;;;;;;;;5051227;28;20455;-69
2021/07/19 06:13:22;;;;;;;22.37;20.80;;;;;;;;;;5051167;28;20804;-70
2021/07/19 06:15:50;;;;;;;24.17;22.37;;;;;;;;;;5052125;28;20444;-68
2021/07/19 06:18:17;;;;;;;23.67;22.20;;;;;;;;;;5051671;28;20456;-68
2021/07/19 06:20:44;;;;;;;23.07;21.77;;;;;;;;;;5052447;28;20443;-69
2021/07/19 06:23:13;;;;;;;21.80;20.47;;;;;;;;;;5052216;28;20860;-69
2021/07/19 06:25:42;;;;;;;23.27;21.73;;;;;;;;;;5051944;28;20953;-69
2021/07/19 06:28:09;;;;;;;24.87;23.37;;;;;;;;;;5052083;28;20452;-69
2021/07/19 06:30:36;;;;;;;21.73;20.33;;;;;;;;;;5052247;28;20447;-69
2021/07/19 06:33:04;;;;;;;21.00;19.70;;;;;;;;;;5051585;28;20476;-69
2021/07/19 06:35:31;;;;;;;20.87;19.53;;;;;;;;;;5052412;28;20460;-68
2021/07/19 06:37:59;;;;;;;20.87;19.70;;;;;;;;;;5052034;28;20452;-68
2021/07/19 06:40:27;;;;;;;21.47;20.13;;;;;;;;;;5052009;28;20454;-70
2021/07/19 06:42:54;;;;;;;21.13;19.83;;;;;;;;;;5051588;28;20498;-68
2021/07/19 06:45:21;;;;;;;20.27;19.07;;;;;;;;;;5051880;28;20958;-68
2021/07/19 06:47:48;;;;;;;20.90;19.70;;;;;;;;;;5051732;28;20457;-69
2021/07/19 06:50:15;;;;;;;19.83;18.60;;;;;;;;;;5051823;28;20460;-69
2021/07/19 06:52:43;;;;;;;21.73;20.43;;;;;;;;;;5051171;28;20476;-69
2021/07/19 06:55:10;;;;;;;21.37;20.17;;;;;;;;;;5052023;28;20454;-68
2021/07/19 06:57:40;;;;;;;20.80;19.60;;;;;;;;;;5050863;28;20470;-69
2021/07/19 07:00:07;;;;;;;21.60;20.20;;;;;;;;;;5051571;28;20943;-68
2021/07/19 07:02:34;;;;;;;20.37;19.27;;;;;;;;;;5050241;28;20492;-69
2021/07/19 07:05:02;;;;;;;20.43;19.33;;;;;;;;;;5051577;28;20942;-69
2021/07/19 07:07:29;;;;;;;20.63;19.43;;;;;;;;;;5051282;28;20514;-69
2021/07/19 07:09:56;;;;;;;20.73;19.60;;;;;;;;;;5051984;28;20451;-69
2021/07/19 07:12:23;;;;;;;21.33;20.13;;;;;;;;;;5050408;28;20482;-69
2021/07/19 07:14:51;;;;;;;20.37;19.27;;;;;;;;;;5051386;28;20452;-68
2021/07/19 07:17:18;;;;;;;23.53;22.23;;;;;;;;;;5050682;28;20482;-70
2021/07/19 07:19:46;;;;;;;23.53;22.33;;;;;;;;;;5051571;28;20459;-68
2021/07/19 07:22:13;;;;;;;24.43;22.93;;;;;;;;;;5050652;28;20487;-69
2021/07/19 07:24:41;;;;;;;23.23;22.03;;;;;;;;;;5051519;28;20459;-69
2021/07/19 07:27:09;;;;;;;24.43;22.93;;;;;;;;;;5050728;28;20452;-69
2021/07/19 07:29:36;;;;;;;23.47;22.13;;;;;;;;;;5051762;28;20897;-69
2021/07/19 07:32:05;;;;;;;23.10;21.80;;;;;;;;;;5050635;28;20467;-69
2021/07/19 07:34:32;;;;;;;23.60;22.20;;;;;;;;;;5051528;28;20447;-69
2021/07/19 07:36:59;;;;;;;23.83;22.27;;;;;;;;;;5050864;28;21040;-69
2021/07/19 07:39:27;;;;;;;23.63;22.33;;;;;;;;;;5051308;28;20822;-69
2021/07/19 07:41:54;;;;;;;23.77;22.37;;;;;;;;;;5050932;28;20479;-69
2021/07/19 07:44:21;;;;;;;24.67;23.27;;;;;;;;;;5051614;28;20454;-68
2021/07/19 07:46:49;;;;;;;23.50;22.20;;;;;;;;;;5050884;28;20444;-68
2021/07/19 07:49:17;;;;;;;22.83;21.53;;;;;;;;;;5051380;28;20452;-68
2021/07/19 07:51:44;;;;;;;23.50;22.30;;;;;;;;;;5049874;28;20834;-69
2021/07/19 07:54:11;;;;;;;23.03;21.80;;;;;;;;;;5051198;28;20448;-70
2021/07/19 07:56:38;;;;;;;23.27;22.07;;;;;;;;;;5050944;28;20443;-69
2021/07/19 07:59:06;;;;;;;23.13;22.03;;;;;;;;;;5051313;28;20462;-70
2021/07/19 08:01:33;;;;;;;21.27;20.07;;;;;;;;;;5051254;28;20479;-70
2021/07/19 08:04:00;;;;;;;21.03;19.87;;;;;;;;;;5052242;28;20492;-67
2021/07/19 08:06:28;;;;;;;21.50;20.43;;;;;;;;;;5051352;28;20458;-69
2021/07/19 08:08:55;;;;;;;21.70;20.50;;;;;;;;;;5050777;28;20448;-68
2021/07/19 08:11:22;;;;;;;22.70;21.50;;;;;;;;;;5050598;28;20472;-68
2021/07/19 08:13:49;;;;;;;21.87;20.67;;;;;;;;;;5035928;28;20455;-68
2021/07/19 08:16:17;;;;;;;21.63;20.43;;;;;;;;;;5031166;28;20455;-69
2021/07/19 08:18:44;;;;;;;21.10;19.90;;;;;;;;;;5044932;28;20462;-69
2021/07/19 08:21:11;;;;;;;20.20;19.20;;;;;;;;;;5050842;28;20495;-69
2021/07/19 08:23:39;;;;;;;23.37;22.20;;;;;;;;;;5050648;28;20483;-68
2021/07/19 08:26:07;;;;;;;24.80;23.60;;;;;;;;;;5050981;28;20451;-69
2021/07/19 08:28:34;;;;;;;20.37;19.10;;;;;;;;;;5050877;28;20845;-70
2021/07/19 08:31:02;;;;;;;19.10;18.10;;;;;;;;;;5053899;28;20447;-69
2021/07/19 08:33:29;;;;;;;19.70;18.70;;;;;;;;;;5053842;28;20452;-68
2021/07/19 08:35:56;;;;;;;20.40;19.30;;;;;;;;;;5054735;28;20462;-69
2021/07/19 08:38:23;;;;;;;19.17;18.17;;;;;;;;;;5053807;28;20980;-69
2021/07/19 08:40:52;;;;;;;19.40;18.30;;;;;;;;;;5054278;28;20450;-69
2021/07/19 08:43:20;;;;;;;20.27;19.20;;;;;;;;;;5053827;28;20493;-69
2021/07/19 08:45:47;;;;;;;20.30;19.20;;;;;;;;;;5054440;28;20451;-69
2021/07/19 08:48:14;;;;;;;19.70;18.70;;;;;;;;;;5053895;28;20452;-69
2021/07/19 08:50:42;;;;;;;18.40;17.50;;;;;;;;;;5053638;28;20452;-68
2021/07/19 08:53:09;;;;;;;19.87;18.87;;;;;;;;;;5053601;28;20475;-70
2021/07/19 08:55:36;;;;;;;19.07;18.07;;;;;;;;;;5054080;28;20462;-69
2021/07/19 08:58:05;;;;;;;19.47;18.37;;;;;;;;;;5053353;28;20452;-68
2021/07/19 09:00:33;;;;;;;20.00;18.83;;;;;;;;;;5054123;28;20444;-69
2021/07/19 09:03:00;;;;;;;19.63;18.53;;;;;;;;;;5053402;28;20511;-69
2021/07/19 09:05:28;;;;;;;18.73;17.83;;;;;;;;;;5053815;28;20462;-68
2021/07/19 09:07:56;;;;;;;19.40;18.30;;;;;;;;;;5053125;28;20452;-69
2021/07/19 09:10:25;;;;;;;19.17;18.17;;;;;;;;;;5053770;28;20545;-69
2021/07/19 09:12:52;;;;;;;19.17;18.07;;;;;;;;;;5053139;28;20472;-69
2021/07/19 09:15:29;;;;;;;19.37;18.37;;;;;;;;;;5053638;28;20939;-69
2021/07/19 09:17:57;;;;;;;19.40;18.40;;;;;;;;;;5053104;28;20444;-69
2021/07/19 09:20:28;;;;;;;18.90;17.80;;;;;;;;;;5053367;28;20474;-69
2021/07/19 09:22:56;;;;;;;19.10;18.10;;;;;;;;;;5052971;28;20990;-70
2021/07/19 09:25:23;;;;;;;18.77;17.70;;;;;;;;;;5053578;28;20466;-68
2021/07/19 09:27:54;;;;;;;18.73;17.70;;;;;;;;;;5052891;28;20458;-69
2021/07/19 09:30:23;;;;;;;18.57;17.67;;;;;;;;;;5053907;28;20454;-69
2021/07/19 09:32:59;;;;;;;19.77;18.70;;;;;;;;;;5054892;28;20885;-68
2021/07/19 09:35:28;;;;;;;19.13;18.13;;;;;;;;;;5053604;28;20483;-69
2021/07/19 09:37:55;;;;;;;18.57;17.50;;;;;;;;;;5053175;28;20800;-69
2021/07/19 09:40:26;;;;;;;19.17;18.23;;;;;;;;;;5052035;28;20553;-69
2021/07/19 09:42:54;;;;;;;19.20;18.20;;;;;;;;;;5052715;28;20974;-68
2021/07/19 09:45:24;;;;;;;19.23;18.20;;;;;;;;;;5052553;28;20498;-69
2021/07/19 09:47:59;;;;;;;18.03;17.23;;;;;;;;;;5053324;28;20451;-68
2021/07/19 09:50:28;;;;;;;19.40;18.40;;;;;;;;;;5052409;28;20439;-69
2021/07/19 09:52:58;;;;;;;18.60;17.60;;;;;;;;;;5052894;28;20474;-68
2021/07/19 09:55:25;;;;;;;18.50;17.57;;;;;;;;;;5052887;28;20509;-69
2021/07/19 09:57:55;;;;;;;19.50;18.60;;;;;;;;;;5052749;28;20451;-68
2021/07/19 10:00:23;;;;;;;18.63;17.40;;;;;;;;;;5052226;28;20966;-69
2021/07/19 10:02:51;;;;;;;19.37;18.37;;;;;;;;;;5052625;28;20946;-68
2021/07/19 10:05:24;;;;;;;18.80;17.77;;;;;;;;;;5052160;28;20455;-69
2021/07/19 10:07:53;;;;;;;19.03;18.03;;;;;;;;;;5046154;28;20448;-68
2021/07/19 10:10:20;;;;;;;18.90;18.00;;;;;;;;;;5052678;28;20505;-69
2021/07/19 10:12:47;;;;;;;18.80;17.80;;;;;;;;;;5051510;28;20490;-69
2021/07/19 10:15:16;;;;;;;20.57;19.57;;;;;;;;;;5053905;28;20447;-68
2021/07/19 10:17:43;;;;;;;22.13;21.00;;;;;;;;;;5051840;28;20833;-69
2021/07/19 10:20:10;;;;;;;21.03;19.93;;;;;;;;;;5052291;28;20456;-69
2021/07/19 10:22:38;;;;;;;21.10;20.00;;;;;;;;;;5051821;28;20848;-69
2021/07/19 10:25:08;;;;;;;22.23;21.10;;;;;;;;;;5051444;28;21013;-69
2021/07/19 10:27:37;;;;;;;22.27;21.07;;;;;;;;;;5043673;28;20478;-70
2021/07/19 10:30:06;;;;;;;22.00;20.80;;;;;;;;;;5048528;28;20533;-66
2021/07/19 10:32:34;;;;;;;21.73;20.60;;;;;;;;;;5049780;28;20490;-66
2021/07/19 10:35:01;;;;;;;22.70;21.30;;;;;;;;;;5051970;28;20458;-67
2021/07/19 10:37:30;;;;;;;21.43;20.33;;;;;;;;;;5051956;28;20963;-65
2021/07/19 10:39:59;;;;;;;22.23;20.90;;;;;;;;;;5051841;28;20462;-67
2021/07/19 10:42:35;;;;;;;22.40;21.10;;;;;;;;;;5050227;28;20909;-66
2021/07/19 10:45:08;;;;;;;21.30;20.00;;;;;;;;;;5051521;28;20479;-66
2021/07/19 10:47:46;;;;;;;20.47;19.37;;;;;;;;;;5051197;28;20455;-66
2021/07/19 10:50:16;;;;;;;21.40;20.30;;;;;;;;;;5050813;28;20939;-67
2021/07/19 10:52:43;;;;;;;21.83;20.50;;;;;;;;;;5051658;28;20463;-66
2021/07/19 10:55:11;;;;;;;21.37;20.27;;;;;;;;;;5051746;28;20820;-66
2021/07/19 10:57:40;;;;;;;20.67;19.50;;;;;;;;;;5050205;28;20465;-67
2021/07/19 11:00:08;;;;;;;20.73;19.40;;;;;;;;;;5050579;28;21050;-67
2021/07/19 11:02:35;;;;;;;20.50;19.40;;;;;;;;;;5051014;28;20471;-66
2021/07/19 11:05:03;;;;;;;18.73;17.77;;;;;;;;;;5051810;28;20562;-67
2021/07/19 11:07:39;;;;;;;22.80;21.50;;;;;;;;;;5051207;28;20460;-66
2021/07/19 11:10:14;;;;;;;19.27;17.90;;;;;;;;;;5051332;28;20456;-67
2021/07/19 11:12:49;;;;;;;18.30;17.30;;;;;;;;;;5078649;22;20486;-71
2021/07/19 11:15:18;;;;;;;18.80;17.70;;;;;;;;;;5068672;28;21129;-71
2021/07/19 11:17:45;;;;;;;19.60;18.30;;;;;;;;;;5073369;28;20534;-71
2021/07/19 11:20:13;;;;;;;19.40;18.00;;;;;;;;;;5072764;28;20455;-72
2021/07/19 11:22:40;;;;;;;18.80;17.50;;;;;;;;;;5073056;28;21046;-72
2021/07/19 11:25:09;;;;;;;19.77;18.57;;;;;;;;;;5071466;28;20825;-72
2021/07/19 11:27:37;;;;;;;18.03;17.10;;;;;;;;;;5070301;28;20462;-72
2021/07/19 11:30:08;;;;;;;19.73;18.33;;;;;;;;;;5068726;28;20453;-72
2021/07/19 11:32:36;;;;;;;18.90;17.90;;;;;;;;;;5072050;28;20473;-72
2021/07/19 11:35:08;;;;;;;18.90;17.80;;;;;;;;;;5071654;28;20457;-71
2021/07/19 11:37:35;;;;;;;19.27;17.90;;;;;;;;;;5053262;28;20459;-71
2021/07/19 11:40:02;;;;;;;18.93;17.60;;;;;;;;;;5067624;28;20443;-71
2021/07/19 11:42:32;;;;;;;19.20;18.13;;;;;;;;;;5071190;28;20459;-73
2021/07/19 11:45:08;;;;;;;19.30;18.10;;;;;;;;;;5065420;28;20483;-72
2021/07/19 11:47:35;;;;;;;19.03;17.90;;;;;;;;;;5070224;28;20447;-73
2021/07/19 11:50:03;;;;;;;18.70;17.70;;;;;;;;;;5069651;28;20458;-70
2021/07/19 11:52:30;;;;;;;18.80;17.80;;;;;;;;;;5068927;28;20493;-73
2021/07/19 11:54:58;;;;;;;19.80;18.70;;;;;;;;;;5072217;28;20447;-73
2021/07/19 11:57:25;;;;;;;18.80;17.70;;;;;;;;;;5070812;28;20443;-72
2021/07/19 11:59:52;;;;;;;19.90;18.50;;;;;;;;;;5071953;28;20457;-73
2021/07/19 12:02:28;;;;;;;19.40;18.37;;;;;;;;;;5070326;28;20451;-74
2021/07/19 12:04:55;;;;;;;23.80;22.40;;;;;;;;;;5072121;28;20496;-75
2021/07/19 12:07:26;;;;;;;20.30;19.30;;;;;;;;;;5072165;28;20455;-75
2021/07/19 12:09:58;;;;;;;20.43;18.90;;;;;;;;;;5073370;28;20859;-74
2021/07/19 12:12:26;;;;;;;19.50;18.40;;;;;;;;;;5069072;28;20495;-74
2021/07/19 12:14:56;;;;;;;20.60;19.30;;;;;;;;;;5074465;28;20457;-74
2021/07/19 12:17:28;;;;;;;19.87;18.77;;;;;;;;;;5075070;28;20435;-73
2021/07/19 12:19:55;;;;;;;19.53;18.43;;;;;;;;;;5073666;28;20848;-72
2021/07/19 12:22:22;;;;;;;19.63;18.43;;;;;;;;;;5074600;28;20476;-72
2021/07/19 12:24:52;;;;;;;19.67;18.57;;;;;;;;;;5074653;28;20482;-73
2021/07/19 12:27:19;;;;;;;19.57;18.47;;;;;;;;;;5074139;28;20950;-75
2021/07/19 12:29:46;;;;;;;19.13;17.80;;;;;;;;;;5074976;28;20476;-73
2021/07/19 12:32:13;;;;;;;19.07;17.97;;;;;;;;;;5074375;28;20824;-73
2021/07/19 12:34:42;;;;;;;22.40;21.07;;;;;;;;;;5074943;28;20451;-72
2021/07/19 12:37:10;;;;;;;22.00;20.70;;;;;;;;;;5074004;28;20450;-71
2021/07/19 12:39:38;;;;;;;21.97;20.57;;;;;;;;;;5075315;28;20449;-71
2021/07/19 12:42:09;;;;;;;21.97;20.60;;;;;;;;;;5069412;28;20942;-71
2021/07/19 12:44:36;;;;;;;22.50;21.10;;;;;;;;;;5067501;28;20480;-70
2021/07/19 12:47:04;;;;;;;23.20;22.00;;;;;;;;;;5059669;28;20904;-71
2021/07/19 12:49:32;;;;;;;22.00;20.70;;;;;;;;;;5061423;28;20451;-71
2021/07/19 12:52:02;;;;;;;22.00;20.80;;;;;;;;;;5057470;28;20525;-71
2021/07/19 12:54:30;;;;;;;18.90;17.90;;;;;;;;;;5075278;28;20468;-71
2021/07/19 12:56:57;;;;;;;21.20;20.10;;;;;;;;;;5074559;28;20990;-71
2021/07/19 12:59:24;;;;;;;20.67;19.57;;;;;;;;;;5074269;28;20443;-71
2021/07/19 13:01:52;;;;;;;20.23;19.23;;;;;;;;;;5074963;28;20447;-72
2021/07/19 13:04:22;;;;;;;20.30;19.30;;;;;;;;;;5067753;28;20847;-72
2021/07/19 13:06:49;;;;;;;20.33;19.23;;;;;;;;;;5074098;28;20829;-71
2021/07/19 13:09:22;;;;;;;19.67;18.67;;;;;;;;;;5073903;28;20941;-71
2021/07/19 13:11:52;;;;;;;18.63;17.53;;;;;;;;;;5074553;28;20438;-70
2021/07/19 13:14:19;;;;;;;21.20;20.00;;;;;;;;;;5057843;28;20471;-75
2021/07/19 13:16:57;;;;;;;18.47;17.47;;;;;;;;;;5074282;28;20439;-72
2021/07/19 13:19:29;;;;;;;17.93;16.93;;;;;;;;;;5056694;28;20526;-72
2021/07/19 13:21:57;;;;;;;19.40;18.10;;;;;;;;;;5054598;28;20448;-72
2021/07/19 13:24:25;;;;;;;18.73;17.73;;;;;;;;;;5054937;28;20829;-72
2021/07/19 13:26:52;;;;;;;18.00;17.00;;;;;;;;;;5072373;28;20478;-72
2021/07/19 13:29:20;;;;;;;18.53;17.53;;;;;;;;;;5074173;28;20447;-72
2021/07/19 13:31:47;;;;;;;18.33;17.20;;;;;;;;;;5073338;28;20531;-72
2021/07/19 13:34:17;;;;;;;17.97;16.97;;;;;;;;;;5066256;28;20471;-72
2021/07/19 13:36:48;;;;;;;18.60;17.63;;;;;;;;;;5057223;28;20455;-72
2021/07/19 13:39:25;;;;;;;18.13;17.20;;;;;;;;;;5075044;28;20450;-72
2021/07/19 13:42:02;;;;;;;18.93;17.90;;;;;;;;;;5073804;28;20446;-72
2021/07/19 13:44:29;;;;;;;18.87;17.87;;;;;;;;;;5075672;28;20466;-72
2021/07/19 13:46:56;;;;;;;18.63;17.73;;;;;;;;;;5074652;28;20451;-72
2021/07/19 13:49:23;;;;;;;21.40;20.30;;;;;;;;;;5064428;28;20452;-72
2021/07/19 13:51:50;;;;;;;21.77;20.57;;;;;;;;;;5068567;28;20451;-72
2021/07/19 13:54:17;;;;;;;21.37;20.17;;;;;;;;;;5068553;28;20474;-72
2021/07/19 13:56:44;;;;;;;21.47;20.37;;;;;;;;;;5054352;28;20452;-72
2021/07/19 13:59:13;;;;;;;21.13;20.10;;;;;;;;;;5053823;28;20463;-72
2021/07/19 14:01:40;;;;;;;21.63;20.53;;;;;;;;;;5065343;28;20455;-72
2021/07/19 14:04:07;;;;;;;20.53;19.43;;;;;;;;;;5073200;28;20486;-72
2021/07/19 14:06:34;;;;;;;21.50;20.40;;;;;;;;;;5073232;28;20837;-72
2021/07/19 14:09:02;;;;;;;21.80;20.50;;;;;;;;;;5072834;28;20451;-72
2021/07/19 14:11:29;;;;;;;21.43;20.33;;;;;;;;;;5068864;28;20462;-74
2021/07/19 14:13:56;;;;;;;20.80;19.77;;;;;;;;;;5073225;28;20483;-72
2021/07/19 14:16:25;;;;;;;22.53;21.23;;;;;;;;;;5064330;28;20961;-72
2021/07/19 14:18:52;;;;;;;21.90;20.70;;;;;;;;;;5073850;28;20439;-72
2021/07/19 14:21:19;;;;;;;21.80;20.07;;;;;;;;;;5071575;28;20489;-71